createdAt,value
2019-05-19T00:01:39.897Z,34.57
2019-05-19T00:04:10.655Z,34.57
2019-05-19T00:06:41.618Z,33.50
2019-05-19T00:09:12.302Z,35.10
2019-05-19T00:11:43.025Z,37.97
2019-05-19T00:14:13.700Z,39.63
2019-05-19T00:16:44.462Z,37.97
2019-05-19T00:19:26.336Z,40.50
2019-05-19T00:21:47.834Z,40.53
2019-05-19T00:24:18.853Z,44.37
2019-05-19T00:26:50.063Z,38.50
2019-05-19T00:29:20.729Z,38.57
2019-05-19T00:31:51.404Z,41.57
2019-05-19T00:34:22.077Z,40.83
2019-05-19T00:36:53.158Z,38.67
2019-05-19T00:39:23.894Z,39.50
2019-05-19T00:41:54.667Z,41.73
2019-05-19T00:44:25.348Z,39.70
2019-05-19T00:46:56.395Z,37.63
2019-05-19T00:49:40.595Z,36.07
2019-05-19T00:51:59.905Z,39.40
2019-05-19T00:54:30.948Z,36.63
2019-05-19T00:57:04.899Z,36.17
2019-05-19T00:59:36.949Z,31.47
2019-05-19T01:02:07.633Z,33.17
2019-05-19T01:04:38.676Z,34.17
2019-05-19T01:07:10.025Z,33.93
2019-05-19T01:09:40.964Z,35.10
2019-05-19T01:12:11.724Z,33.13
2019-05-19T01:14:42.396Z,33.47
2019-05-19T01:17:13.451Z,34.90
2019-05-19T01:19:55.165Z,33.00
2019-05-19T01:22:16.877Z,32.30
2019-05-19T01:24:48.122Z,32.43
2019-05-19T01:27:19.170Z,33.47
2019-05-19T01:29:50.229Z,32.77
2019-05-19T01:32:21.364Z,31.57
2019-05-19T01:34:52.408Z,32.37
2019-05-19T01:37:23.488Z,31.90
2019-05-19T01:39:54.236Z,33.50
2019-05-19T01:42:25.318Z,34.73
2019-05-19T01:44:56.011Z,33.37
2019-05-19T01:47:26.997Z,32.97
2019-05-19T01:50:16.498Z,32.47
2019-05-19T01:52:30.391Z,32.00
2019-05-19T01:55:01.192Z,34.77
2019-05-19T01:57:32.164Z,35.00
2019-05-19T02:00:03.551Z,34.90
2019-05-19T02:02:35.871Z,38.57
2019-05-19T02:05:10.118Z,35.17
2019-05-19T02:07:41.286Z,37.53
2019-05-19T02:10:12.477Z,37.50
2019-05-19T02:12:43.517Z,35.70
2019-05-19T02:15:16.388Z,38.90
2019-05-19T02:17:47.458Z,35.43
2019-05-19T02:20:32.169Z,37.03
2019-05-19T02:22:51.176Z,34.73
2019-05-19T02:25:22.653Z,33.93
2019-05-19T02:27:53.321Z,35.83
2019-05-19T02:30:24.287Z,36.43
2019-05-19T02:32:55.417Z,32.67
2019-05-19T02:35:26.305Z,34.70
2019-05-19T02:37:57.025Z,33.87
2019-05-19T02:40:30.240Z,35.67
2019-05-19T02:43:02.048Z,31.87
2019-05-19T02:45:36.129Z,35.37
2019-05-19T02:48:07.449Z,33.80
2019-05-19T02:50:51.456Z,35.93
2019-05-19T02:53:15.466Z,33.67
2019-05-19T02:55:47.135Z,36.60
2019-05-19T02:58:18.754Z,35.17
2019-05-19T03:00:49.448Z,35.50
2019-05-19T03:03:20.134Z,33.73
2019-05-19T03:05:50.818Z,36.47
2019-05-19T03:08:21.500Z,34.87
2019-05-19T03:10:52.507Z,35.17
2019-05-19T03:13:23.181Z,33.63
2019-05-19T03:15:53.894Z,34.47
2019-05-19T03:18:24.562Z,35.90
2019-05-19T03:21:09.752Z,33.90
2019-05-19T03:23:28.000Z,32.03
2019-05-19T03:25:58.736Z,35.23
2019-05-19T03:28:29.398Z,34.40
2019-05-19T03:31:08.021Z,34.90
2019-05-19T03:33:40.350Z,33.87
2019-05-19T03:36:11.137Z,35.00
2019-05-19T03:38:41.843Z,32.43
2019-05-19T03:41:12.541Z,31.70
2019-05-19T03:43:43.564Z,34.47
2019-05-19T03:46:14.272Z,35.13
2019-05-19T03:48:44.926Z,32.87
2019-05-19T03:51:30.283Z,34.47
2019-05-19T03:53:48.352Z,32.63
2019-05-19T03:56:19.036Z,31.03
2019-05-19T03:58:50.110Z,34.37
2019-05-19T04:01:21.368Z,32.10
2019-05-19T04:03:52.518Z,30.40
2019-05-19T04:06:23.394Z,30.83
2019-05-19T04:08:54.126Z,30.20
2019-05-19T04:11:24.964Z,27.83
2019-05-19T04:13:55.736Z,29.20
2019-05-19T04:16:26.800Z,26.77
2019-05-19T04:18:57.751Z,27.37
2019-05-19T04:21:28.461Z,27.53
2019-05-19T04:23:59.152Z,25.93
2019-05-19T04:26:29.863Z,23.33
2019-05-19T04:29:00.956Z,25.13
2019-05-19T04:31:32.024Z,21.40
2019-05-19T04:34:02.694Z,21.97
2019-05-19T04:36:33.390Z,22.17
2019-05-19T04:39:05.748Z,21.63
2019-05-19T04:41:40.035Z,21.90
2019-05-19T04:44:10.118Z,20.23
2019-05-19T04:46:40.811Z,21.87
2019-05-19T04:49:11.849Z,21.87
2019-05-19T04:51:42.548Z,21.33
2019-05-19T04:54:13.225Z,20.47
2019-05-19T04:56:44.016Z,21.30
2019-05-19T04:59:14.688Z,21.43
2019-05-19T05:01:45.388Z,19.87
2019-05-19T05:04:16.529Z,21.33
2019-05-19T05:06:47.208Z,20.67
2019-05-19T05:09:17.894Z,21.17
2019-05-19T05:11:48.566Z,21.77
2019-05-19T05:14:19.578Z,22.03
2019-05-19T05:16:50.604Z,20.17
2019-05-19T05:19:21.610Z,21.83
2019-05-19T05:21:52.342Z,20.30
2019-05-19T05:24:23.031Z,21.17
2019-05-19T05:26:53.743Z,20.67
2019-05-19T05:29:24.794Z,18.77
2019-05-19T05:31:55.486Z,20.03
2019-05-19T05:34:26.141Z,20.07
2019-05-19T05:36:56.932Z,18.87
2019-05-19T05:39:27.625Z,18.37
2019-05-19T05:41:58.500Z,17.70
2019-05-19T05:44:29.627Z,17.73
2019-05-19T05:47:00.617Z,18.80
2019-05-19T05:49:31.358Z,18.17
2019-05-19T05:52:02.429Z,17.90
2019-05-19T05:54:33.565Z,17.67
2019-05-19T05:57:04.255Z,16.97
2019-05-19T05:59:34.955Z,17.83
2019-05-19T06:02:05.633Z,16.47
2019-05-19T06:04:36.316Z,17.07
2019-05-19T06:07:07.021Z,15.60
2019-05-19T06:09:38.034Z,15.43
2019-05-19T06:12:09.845Z,15.50
2019-05-19T06:14:40.946Z,14.10
2019-05-19T06:17:11.742Z,13.50
2019-05-19T06:19:42.443Z,15.23
2019-05-19T06:22:13.135Z,14.60
2019-05-19T06:24:44.124Z,14.83
2019-05-19T06:27:15.150Z,14.90
2019-05-19T06:29:45.928Z,14.63
2019-05-19T06:32:18.545Z,15.63
2019-05-19T06:34:49.288Z,14.43
2019-05-19T06:37:22.587Z,12.40
2019-05-19T06:39:53.297Z,13.23
2019-05-19T06:42:24.009Z,12.63
2019-05-19T06:44:54.987Z,12.87
2019-05-19T06:47:26.036Z,11.37
2019-05-19T06:49:58.501Z,12.37
2019-05-19T06:52:29.515Z,11.53
2019-05-19T06:55:00.554Z,11.23
2019-05-19T06:57:32.267Z,11.10
2019-05-19T07:00:03.341Z,12.20
2019-05-19T07:02:34.179Z,11.43
2019-05-19T07:05:07.969Z,11.73
2019-05-19T07:07:39.186Z,12.20
2019-05-19T07:10:10.674Z,11.47
2019-05-19T07:12:41.369Z,11.60
2019-05-19T07:15:13.159Z,10.97
2019-05-19T07:17:44.080Z,10.70
2019-05-19T07:20:15.455Z,10.10
2019-05-19T07:22:46.160Z,10.53
2019-05-19T07:25:17.227Z,10.50
2019-05-19T07:27:47.941Z,9.37
2019-05-19T07:30:19.502Z,10.67
2019-05-19T07:32:50.229Z,10.40
2019-05-19T07:35:21.231Z,10.47
2019-05-19T07:37:52.134Z,10.17
2019-05-19T07:40:23.218Z,10.30
2019-05-19T07:42:54.042Z,10.03
2019-05-19T07:45:25.520Z,10.17
2019-05-19T07:47:56.609Z,10.00
2019-05-19T07:50:27.644Z,11.03
2019-05-19T07:52:58.672Z,9.93
2019-05-19T07:55:29.708Z,10.30
2019-05-19T07:58:00.719Z,10.30
2019-05-19T08:00:31.459Z,9.87
2019-05-19T08:03:02.142Z,10.80
2019-05-19T08:05:33.460Z,9.97
2019-05-19T08:08:04.548Z,10.53
2019-05-19T08:10:35.349Z,10.13
2019-05-19T08:13:06.133Z,10.70
2019-05-19T08:15:36.837Z,10.27
2019-05-19T08:18:08.087Z,10.90
2019-05-19T08:20:38.931Z,10.60
2019-05-19T08:23:09.614Z,10.47
2019-05-19T08:25:40.492Z,10.23
2019-05-19T08:28:11.195Z,10.40
2019-05-19T08:30:42.157Z,10.47
2019-05-19T08:33:14.332Z,10.80
2019-05-19T08:35:45.160Z,10.90
2019-05-19T08:38:15.899Z,10.57
2019-05-19T08:40:46.979Z,10.10
2019-05-19T08:43:17.701Z,10.63
2019-05-19T08:45:48.671Z,10.70
2019-05-19T08:48:19.718Z,10.60
2019-05-19T08:50:50.721Z,11.13
2019-05-19T08:53:21.728Z,11.83
2019-05-19T08:55:52.674Z,10.87
2019-05-19T08:58:23.684Z,11.37
2019-05-19T09:00:54.384Z,11.30
2019-05-19T09:03:25.371Z,10.57
2019-05-19T09:05:57.182Z,11.07
2019-05-19T09:08:27.971Z,10.87
2019-05-19T09:11:02.245Z,11.00
2019-05-19T09:13:33.260Z,11.10
2019-05-19T09:16:05.022Z,10.40
2019-05-19T09:18:36.078Z,11.33
2019-05-19T09:21:06.755Z,10.77
2019-05-19T09:23:37.848Z,11.03
2019-05-19T09:26:08.525Z,10.07
2019-05-19T09:28:39.231Z,11.20
2019-05-19T09:31:10.306Z,10.83
2019-05-19T09:33:41.014Z,10.43
2019-05-19T09:36:12.043Z,10.10
2019-05-19T09:38:42.733Z,10.43
2019-05-19T09:41:13.836Z,10.10
2019-05-19T09:43:44.537Z,10.70
2019-05-19T09:46:15.203Z,9.67
2019-05-19T09:48:46.271Z,9.40
2019-05-19T09:51:18.305Z,10.27
2019-05-19T09:53:49.329Z,10.10
2019-05-19T09:56:20.536Z,9.83
2019-05-19T09:58:51.507Z,9.87
2019-05-19T10:01:22.195Z,10.60
2019-05-19T10:03:53.213Z,9.87
2019-05-19T10:06:24.210Z,9.80
2019-05-19T10:08:57.538Z,9.83
2019-05-19T10:12:02.784Z,10.20
2019-05-19T10:14:33.701Z,9.90
2019-05-19T10:17:05.209Z,9.80
2019-05-19T10:19:36.969Z,10.60
2019-05-19T10:22:07.800Z,10.10
2019-05-19T10:24:38.531Z,9.87
2019-05-19T10:27:09.610Z,9.63
2019-05-19T10:29:40.292Z,9.00
2019-05-19T10:32:12.411Z,9.00
2019-05-19T10:34:43.567Z,9.63
2019-05-19T10:37:15.517Z,9.10
2019-05-19T10:39:46.268Z,8.50
2019-05-19T10:42:16.936Z,8.57
2019-05-19T10:44:47.685Z,8.60
2019-05-19T10:47:18.622Z,9.13
2019-05-19T10:49:49.616Z,8.63
2019-05-19T10:52:20.306Z,8.50
2019-05-19T10:54:51.275Z,8.20
2019-05-19T10:57:22.010Z,8.83
2019-05-19T10:59:53.388Z,8.60
2019-05-19T11:02:24.471Z,9.03
2019-05-19T11:04:55.505Z,9.00
2019-05-19T11:07:26.196Z,8.40
2019-05-19T11:09:57.314Z,8.50
2019-05-19T11:12:28.327Z,7.43
2019-05-19T11:14:59.357Z,8.07
2019-05-19T11:17:30.394Z,7.87
2019-05-19T11:20:01.067Z,7.50
2019-05-19T11:22:32.063Z,7.63
2019-05-19T11:25:02.748Z,8.17
2019-05-19T11:27:33.668Z,8.07
2019-05-19T11:30:06.488Z,7.50
2019-05-19T11:32:37.209Z,7.37
2019-05-19T11:35:08.590Z,8.13
2019-05-19T11:37:39.252Z,7.70
2019-05-19T11:40:10.445Z,7.87
2019-05-19T11:42:41.127Z,7.97
2019-05-19T11:45:12.168Z,7.90
2019-05-19T11:47:43.189Z,7.83
2019-05-19T11:50:14.043Z,7.23
2019-05-19T11:52:45.232Z,7.47
2019-05-19T11:55:16.413Z,7.93
2019-05-19T11:57:47.114Z,7.83
2019-05-19T12:00:18.749Z,7.43
2019-05-19T12:02:50.042Z,7.97
2019-05-19T12:05:21.054Z,7.70
2019-05-19T12:07:52.025Z,7.50
2019-05-19T12:10:22.748Z,7.00
2019-05-19T12:12:53.704Z,6.70
2019-05-19T12:15:25.115Z,6.70
2019-05-19T12:17:56.078Z,6.57
2019-05-19T12:20:27.018Z,6.30
2019-05-19T12:22:57.729Z,7.00
2019-05-19T12:25:28.482Z,7.17
2019-05-19T12:27:59.551Z,7.23
2019-05-19T12:30:30.400Z,7.23
2019-05-19T12:33:01.413Z,6.60
2019-05-19T12:35:32.128Z,7.17
2019-05-19T12:38:03.187Z,6.50
2019-05-19T12:40:33.899Z,7.03
2019-05-19T12:43:04.812Z,7.20
2019-05-19T12:45:36.151Z,6.87
2019-05-19T12:48:07.031Z,6.30
2019-05-19T12:50:37.955Z,6.10
2019-05-19T12:53:10.043Z,6.30
2019-05-19T12:55:41.149Z,5.97
2019-05-19T12:58:13.514Z,6.33
2019-05-19T13:00:44.697Z,5.60
2019-05-19T13:03:17.360Z,5.63
2019-05-19T13:05:48.050Z,5.20
2019-05-19T13:08:19.097Z,5.83
2019-05-19T13:10:49.786Z,6.03
2019-05-19T13:13:21.117Z,6.27
2019-05-19T13:15:51.837Z,5.50
2019-05-19T13:18:22.502Z,5.43
2019-05-19T13:20:53.266Z,5.43
2019-05-19T13:23:25.199Z,5.83
2019-05-19T13:25:56.341Z,5.33
2019-05-19T13:28:27.289Z,5.37
2019-05-19T13:30:57.997Z,5.03
2019-05-19T13:33:28.861Z,4.90
2019-05-19T13:35:59.570Z,4.63
2019-05-19T13:38:30.636Z,5.37
2019-05-19T13:41:01.320Z,4.77
2019-05-19T13:43:32.398Z,5.10
2019-05-19T13:46:03.156Z,4.47
2019-05-19T13:48:34.259Z,4.43
2019-05-19T13:51:04.959Z,5.07
2019-05-19T13:53:36.003Z,4.63
2019-05-19T13:56:07.010Z,4.63
2019-05-19T13:58:37.704Z,4.90
2019-05-19T14:01:08.939Z,5.30
2019-05-19T14:03:39.865Z,5.30
2019-05-19T14:06:10.549Z,4.97
2019-05-19T14:08:41.284Z,4.50
2019-05-19T14:11:12.031Z,4.00
2019-05-19T14:13:43.347Z,4.90
2019-05-19T14:16:14.027Z,4.10
2019-05-19T14:18:44.989Z,4.67
2019-05-19T14:21:16.005Z,4.53
2019-05-19T14:23:47.063Z,4.20
2019-05-19T14:26:17.864Z,4.60
2019-05-19T14:28:49.032Z,4.37
2019-05-19T14:31:19.754Z,4.50
2019-05-19T14:33:50.510Z,4.30
2019-05-19T14:36:21.580Z,4.40
2019-05-19T14:39:05.270Z,4.73
2019-05-19T14:41:36.291Z,4.50
2019-05-19T14:44:07.271Z,4.40
2019-05-19T14:46:38.024Z,4.40
2019-05-19T14:49:08.749Z,4.43
2019-05-19T14:51:39.547Z,4.50
2019-05-19T14:54:10.520Z,4.90
2019-05-19T14:56:41.222Z,4.73
2019-05-19T14:59:11.976Z,4.60
2019-05-19T15:01:43.528Z,4.37
2019-05-19T15:04:14.310Z,4.67
2019-05-19T15:06:45.020Z,4.70
2019-05-19T15:09:15.726Z,5.10
2019-05-19T15:11:46.865Z,4.33
2019-05-19T15:14:17.626Z,4.93
2019-05-19T15:16:48.989Z,4.70
2019-05-19T15:19:19.698Z,4.73
2019-05-19T15:21:50.411Z,4.77
2019-05-19T15:24:21.690Z,4.50
2019-05-19T15:26:52.455Z,5.00
2019-05-19T15:29:23.285Z,4.77
2019-05-19T15:31:54.404Z,4.80
2019-05-19T15:34:25.415Z,4.40
2019-05-19T15:36:56.099Z,4.80
2019-05-19T15:39:26.834Z,4.60
2019-05-19T15:41:58.043Z,4.50
2019-05-19T15:44:29.743Z,4.33
2019-05-19T15:47:00.415Z,4.50
2019-05-19T15:49:31.410Z,4.43
2019-05-19T15:52:04.796Z,5.40
2019-05-19T15:54:34.753Z,4.83
2019-05-19T15:57:05.803Z,5.70
2019-05-19T15:59:36.521Z,5.20
2019-05-19T16:02:07.609Z,4.77
2019-05-19T16:04:38.712Z,5.27
2019-05-19T16:07:09.396Z,4.83
2019-05-19T16:09:40.093Z,4.33
2019-05-19T16:12:11.129Z,4.67
2019-05-19T16:14:41.961Z,5.23
2019-05-19T16:17:12.990Z,5.20
2019-05-19T16:19:43.707Z,5.10
2019-05-19T16:22:14.469Z,4.73
2019-05-19T16:24:45.603Z,4.60
2019-05-19T16:27:16.407Z,4.70
2019-05-19T16:29:47.134Z,4.70
2019-05-19T16:32:19.258Z,4.63
2019-05-19T16:34:49.968Z,4.40
2019-05-19T16:37:20.877Z,4.70
2019-05-19T16:39:51.962Z,4.40
2019-05-19T16:42:23.727Z,4.40
2019-05-19T16:44:54.808Z,4.67
2019-05-19T16:47:25.805Z,5.60
2019-05-19T16:49:56.982Z,4.97
2019-05-19T16:52:27.915Z,5.83
2019-05-19T16:55:16.954Z,4.50
2019-05-19T16:57:47.622Z,4.80
2019-05-19T17:00:19.223Z,5.03
2019-05-19T17:02:49.990Z,4.93
2019-05-19T17:05:20.967Z,5.07
2019-05-19T17:07:52.352Z,5.37
2019-05-19T17:10:23.097Z,4.80
2019-05-19T17:12:53.933Z,5.43
2019-05-19T17:15:25.055Z,5.63
2019-05-19T17:17:55.767Z,5.33
2019-05-19T17:20:26.659Z,6.23
2019-05-19T17:22:57.652Z,5.50
2019-05-19T17:25:28.434Z,5.10
2019-05-19T17:27:59.821Z,5.23
2019-05-19T17:30:31.683Z,5.60
2019-05-19T17:33:02.645Z,5.70
2019-05-19T17:35:33.734Z,5.90
2019-05-19T17:38:04.416Z,5.70
2019-05-19T17:40:35.165Z,5.87
2019-05-19T17:43:05.839Z,5.77
2019-05-19T17:45:36.522Z,5.70
2019-05-19T17:48:10.181Z,5.97
2019-05-19T17:50:39.978Z,6.40
2019-05-19T17:53:10.994Z,6.70
2019-05-19T17:55:43.344Z,6.03
2019-05-19T17:58:14.360Z,6.60
2019-05-19T18:00:45.118Z,6.87
2019-05-19T18:03:15.815Z,6.30
2019-05-19T18:05:47.038Z,6.57
2019-05-19T18:08:17.825Z,6.20
2019-05-19T18:10:48.624Z,6.50
2019-05-19T18:13:19.675Z,6.30
2019-05-19T18:15:50.345Z,6.77
2019-05-19T18:18:21.014Z,6.37
2019-05-19T18:20:52.986Z,6.37
2019-05-19T18:23:24.353Z,6.23
2019-05-19T18:25:55.481Z,6.43
2019-05-19T18:28:27.365Z,6.90
2019-05-19T18:30:58.460Z,6.53
2019-05-19T18:33:29.185Z,6.10
2019-05-19T18:36:00.274Z,6.40
2019-05-19T18:38:31.316Z,6.20
2019-05-19T18:41:02.435Z,7.30
2019-05-19T18:43:33.609Z,6.77
2019-05-19T18:46:04.612Z,5.77
2019-05-19T18:48:35.609Z,6.43
2019-05-19T18:51:07.839Z,5.90
2019-05-19T18:53:38.866Z,6.30
2019-05-19T18:56:09.571Z,5.53
2019-05-19T18:58:40.567Z,5.90
2019-05-19T19:01:11.686Z,6.20
2019-05-19T19:03:42.817Z,6.10
2019-05-19T19:06:13.979Z,6.13
2019-05-19T19:08:45.105Z,6.30
2019-05-19T19:11:15.967Z,7.07
2019-05-19T19:13:47.095Z,5.90
2019-05-19T19:16:19.095Z,5.87
2019-05-19T19:18:50.206Z,7.83
2019-05-19T19:21:21.237Z,6.40
2019-05-19T19:23:52.086Z,6.43
2019-05-19T19:26:23.260Z,6.70
2019-05-19T19:28:54.242Z,7.33
2019-05-19T19:31:25.277Z,7.10
2019-05-19T19:33:56.841Z,6.60
2019-05-19T19:36:27.919Z,7.50
2019-05-19T19:38:58.650Z,7.60
2019-05-19T19:41:29.754Z,7.37
2019-05-19T19:44:00.785Z,6.97
2019-05-19T19:46:32.975Z,7.20
2019-05-19T19:49:03.893Z,6.93
2019-05-19T19:51:34.587Z,27.87
2019-05-19T19:54:05.793Z,17.60
2019-05-19T19:56:36.455Z,31.00
2019-05-19T19:59:07.159Z,10.60
2019-05-19T20:01:38.199Z,8.57
2019-05-19T20:04:10.077Z,8.67
2019-05-19T20:06:40.736Z,8.37
2019-05-19T20:09:14.109Z,8.13
2019-05-19T20:11:45.248Z,8.70
2019-05-19T20:14:16.559Z,8.80
2019-05-19T20:16:47.700Z,8.43
2019-05-19T20:19:19.666Z,8.60
2019-05-19T20:21:52.027Z,8.93
2019-05-19T20:24:22.963Z,8.60
2019-05-19T20:26:54.028Z,9.30
2019-05-19T20:29:25.035Z,9.43
2019-05-19T20:31:55.999Z,9.90
2019-05-19T20:34:26.663Z,8.93
2019-05-19T20:36:57.646Z,9.27
2019-05-19T20:39:28.424Z,9.00
2019-05-19T20:41:59.363Z,8.90
2019-05-19T20:44:30.378Z,9.57
2019-05-19T20:47:01.027Z,9.97
2019-05-19T20:49:31.729Z,9.97
2019-05-19T20:52:02.706Z,10.00
2019-05-19T20:54:33.859Z,10.07
2019-05-19T20:57:04.544Z,9.47
2019-05-19T20:59:35.611Z,10.93
2019-05-19T21:02:06.555Z,10.67
2019-05-19T21:04:37.262Z,10.50
2019-05-19T21:07:08.241Z,12.57
2019-05-19T21:09:39.262Z,12.10
2019-05-19T21:12:10.297Z,9.90
2019-05-19T21:14:42.012Z,10.80
2019-05-19T21:17:13.090Z,11.53
2019-05-19T21:19:45.384Z,10.47
2019-05-19T21:22:16.067Z,10.90
2019-05-19T21:24:47.130Z,11.37
2019-05-19T21:27:17.812Z,11.20
2019-05-19T21:29:48.677Z,10.27
2019-05-19T21:32:19.672Z,10.80
2019-05-19T21:34:50.756Z,10.17
2019-05-19T21:37:21.803Z,11.57
2019-05-19T21:39:52.869Z,10.87
2019-05-19T21:42:23.774Z,10.87
2019-05-19T21:44:54.463Z,12.43
2019-05-19T21:47:25.196Z,11.43
2019-05-19T21:49:56.235Z,11.20
2019-05-19T21:52:26.906Z,11.33
2019-05-19T21:54:58.096Z,10.93
2019-05-19T21:57:29.231Z,12.13
2019-05-19T22:00:00.279Z,11.63
2019-05-19T22:02:31.383Z,11.17
2019-05-19T22:05:02.117Z,11.00
2019-05-19T22:07:50.887Z,10.70
2019-05-19T22:10:23.384Z,10.53
2019-05-19T22:12:54.082Z,10.30
2019-05-19T22:15:25.210Z,11.47
2019-05-19T22:17:55.866Z,11.00
2019-05-19T22:20:26.596Z,11.63
2019-05-19T22:22:57.267Z,10.90
2019-05-19T22:25:27.938Z,10.53
2019-05-19T22:27:59.904Z,11.83
2019-05-19T22:30:30.863Z,10.37
2019-05-19T22:33:02.001Z,11.60
2019-05-19T22:35:33.922Z,10.40
2019-05-19T22:38:05.014Z,11.13
2019-05-19T22:40:36.034Z,11.30
2019-05-19T22:43:07.103Z,11.07
2019-05-19T22:45:38.114Z,11.10
2019-05-19T22:48:10.071Z,10.63
2019-05-19T22:50:40.723Z,10.80
2019-05-19T22:53:11.435Z,12.00
2019-05-19T22:55:42.381Z,10.77
2019-05-19T22:58:13.398Z,11.67
2019-05-19T23:00:44.456Z,11.20
2019-05-19T23:03:15.140Z,10.80
2019-05-19T23:05:46.105Z,11.03
2019-05-19T23:08:17.762Z,11.73
2019-05-19T23:10:48.713Z,11.40
2019-05-19T23:13:19.780Z,11.10
2019-05-19T23:15:50.571Z,11.50
2019-05-19T23:18:21.525Z,10.90
2019-05-19T23:20:52.622Z,11.17
2019-05-19T23:23:23.364Z,11.03
2019-05-19T23:25:55.120Z,11.47
2019-05-19T23:28:26.950Z,12.07
2019-05-19T23:30:57.817Z,10.73
2019-05-19T23:33:28.495Z,11.17
2019-05-19T23:35:59.566Z,11.20
2019-05-19T23:38:30.776Z,12.50
2019-05-19T23:41:01.808Z,11.57
2019-05-19T23:43:32.856Z,11.20
2019-05-19T23:46:03.570Z,11.80
2019-05-19T23:48:34.232Z,11.30
2019-05-19T23:51:05.250Z,11.50
2019-05-19T23:53:36.017Z,11.67
2019-05-19T23:56:07.457Z,11.17
2019-05-19T23:58:38.479Z,12.00
